Main page
METAR-TAF:

METAR-TAF

Airports :

Winnipeg James Armstrong Richardson International Airport

Winnipeg, Manitoba, Canada

latitude: 49-54N, longitude: 097-14W, elevation: 239 m

Current weather observation

The report was made 56 minutes ago, at 00:00 UTC
Wind 8 kt from the North
Temperature -19°C
Humidity 70%
Pressure 1026 hPa
Visibility: 24.1 km
Few clouds at a height of 25000 ft
Low drifting snow

METAR: CYWG 160000Z 35008KT 15SM DRSN FEW250 M19/M23 A3031 RMK CI1 CI TR SLP286

Time: 18:56 (00:56 UTC)

Forecast

The report was made 1 hour and 15 minutes ago, at 23:41 UTC
Forecast valid from 16 at 00 UTC to 16 at 24 UTC
Wind 12 kt from the North
Visibility: 10 km
Few clouds at a height of 2000 ft
Becoming
from 16 at 10 UTC to 16 at 12 UTC
Wind 6 kt from the West
Becoming
from 16 at 14 UTC to 16 at 16 UTC
Wind 8 kt from the South/Southwest

TAF: CYWG 152341Z 1600/1624 35012KT P6SM FEW020 BECMG 1610/1612 26006KT BECMG 1614/1616 20008KT RMK NXT FCST BY 160600Z

Weather observations and forecasts of more than 4000 airports (METAR and TAF reports).

The available stations are represented by yellow and red dots on the map.

Hover mouse over dot to see the name of the station.

Then click to see weather observations and forecasts.

To change the map : click on the green buttons with a black cross to zoom in, on the green button with a dash to zoom out, or on the green arrows for adjacent maps.


METAR-TAF: